Time,TemperatureF,DewpointF,PressureIn,WindDirection,WindDirectionDegrees,WindSpeedMPH,WindSpeedGustMPH,Humidity,HourlyPrecipIn,Conditions,Clouds,dailyrainin,SoftwareType,DateUTC
2016-02-10 00:01:00,19.8,16.7,29.99,SSW,194,11.0,12.0,88,0.00,,,0.00,meteohub,2016-02-10 05:01:00,
2016-02-10 00:06:00,19.6,16.5,29.99,SSW,199,4.0,13.0,88,0.00,,,0.00,meteohub,2016-02-10 05:06:00,
2016-02-10 00:11:00,19.6,16.5,29.99,SW,235,4.0,13.0,88,0.00,,,0.00,meteohub,2016-02-10 05:11:00,
2016-02-10 00:16:00,19.6,16.5,29.99,SSE,158,7.0,13.0,88,0.00,,,0.00,meteohub,2016-02-10 05:16:00,
2016-02-10 00:21:00,19.2,15.4,29.99,SW,233,7.0,18.0,85,0.00,,,0.00,meteohub,2016-02-10 05:21:00,
2016-02-10 00:26:00,19.2,15.3,29.99,South,177,6.0,18.0,84,0.00,,,0.00,meteohub,2016-02-10 05:26:00,
2016-02-10 00:32:00,19.0,14.7,29.99,South,181,6.0,18.0,83,0.00,,,0.00,meteohub,2016-02-10 05:32:00,
2016-02-10 00:37:00,19.0,14.7,29.99,SSW,195,4.0,14.0,83,0.00,,,0.00,meteohub,2016-02-10 05:37:00,
2016-02-10 00:42:00,18.9,14.4,29.99,SSE,164,4.0,14.0,82,0.00,,,0.00,meteohub,2016-02-10 05:42:00,
2016-02-10 00:47:00,18.7,14.2,29.99,South,186,3.0,12.0,82,0.00,,,0.00,meteohub,2016-02-10 05:47:00,
2016-02-10 00:52:00,18.5,14.0,29.99,SSW,192,5.0,12.0,82,0.00,,,0.00,meteohub,2016-02-10 05:52:00,
2016-02-10 00:57:00,18.3,13.8,29.99,South,182,6.0,12.0,82,0.00,,,0.00,meteohub,2016-02-10 05:57:00,
2016-02-10 01:02:00,18.3,13.8,29.99,South,189,2.0,12.0,82,0.00,,,0.00,meteohub,2016-02-10 06:02:00,
2016-02-10 01:07:00,18.1,13.6,29.99,SSW,200,8.0,12.0,82,0.00,,,0.00,meteohub,2016-02-10 06:07:00,
2016-02-10 01:17:00,18.1,13.8,29.99,South,181,6.0,11.0,83,0.00,,,0.00,meteohub,2016-02-10 06:17:00,
2016-02-10 01:23:00,18.0,13.6,29.99,SW,230,6.0,12.0,83,0.00,,,0.00,meteohub,2016-02-10 06:23:00,
2016-02-10 01:28:00,18.0,13.6,29.99,SW,216,6.0,12.0,83,0.00,,,0.00,meteohub,2016-02-10 06:28:00,
2016-02-10 01:33:00,18.0,13.6,29.99,South,170,5.0,14.0,83,0.00,,,0.00,meteohub,2016-02-10 06:33:00,
2016-02-10 01:48:00,18.0,13.6,29.99,South,172,5.0,9.0,83,0.00,,,0.00,meteohub,2016-02-10 06:48:00,
2016-02-10 01:53:00,18.0,13.6,29.99,South,189,2.0,10.0,83,0.00,,,0.00,meteohub,2016-02-10 06:53:00,
2016-02-10 01:58:00,17.8,13.5,29.99,SSE,162,4.0,10.0,83,0.00,,,0.00,meteohub,2016-02-10 06:58:00,
2016-02-10 02:03:00,17.8,13.5,29.99,South,172,6.0,10.0,83,0.00,,,0.00,meteohub,2016-02-10 07:03:00,
2016-02-10 02:08:00,17.6,13.3,29.99,South,183,3.0,8.0,83,0.00,,,0.00,meteohub,2016-02-10 07:08:00,
2016-02-10 02:14:00,17.6,13.6,29.99,SW,227,2.0,8.0,84,0.00,,,0.00,meteohub,2016-02-10 07:14:00,
2016-02-10 02:19:00,17.8,13.8,29.99,South,176,4.0,8.0,84,0.00,,,0.00,meteohub,2016-02-10 07:19:00,
2016-02-10 02:24:00,17.8,13.8,29.99,South,184,1.0,7.0,84,0.00,,,0.00,meteohub,2016-02-10 07:24:00,
2016-02-10 02:29:00,18.0,14.0,29.99,South,173,11.0,11.0,84,0.00,,,0.00,meteohub,2016-02-10 07:29:00,
2016-02-10 02:34:00,18.0,14.0,29.99,SSE,164,7.0,11.0,84,0.00,,,0.00,meteohub,2016-02-10 07:34:00,
2016-02-10 02:39:00,18.0,14.0,29.99,SSE,149,2.0,11.0,84,0.00,,,0.00,meteohub,2016-02-10 07:39:00,
2016-02-10 02:44:00,18.0,14.2,29.99,South,171,2.0,11.0,85,0.00,,,0.00,meteohub,2016-02-10 07:44:00,
2016-02-10 02:49:00,18.0,14.2,29.99,SE,125,1.0,11.0,85,0.00,,,0.00,meteohub,2016-02-10 07:49:00,
2016-02-10 02:59:00,18.0,14.5,29.99,SSE,162,2.0,6.0,86,0.00,,,0.00,meteohub,2016-02-10 07:59:00,
2016-02-10 03:04:00,18.0,14.7,29.99,SSW,199,3.0,7.0,87,0.00,,,0.00,meteohub,2016-02-10 08:04:00,
2016-02-10 03:10:00,18.1,14.9,29.99,South,170,9.0,9.0,87,0.00,,,0.00,meteohub,2016-02-10 08:10:00,
2016-02-10 03:15:00,18.1,14.9,29.99,SSE,163,6.0,10.0,87,0.00,,,0.00,meteohub,2016-02-10 08:15:00,
2016-02-10 03:20:00,18.1,14.7,29.99,SE,127,8.0,10.0,86,0.00,,,0.00,meteohub,2016-02-10 08:20:00,
2016-02-10 03:25:00,18.1,14.4,30.00,South,172,6.0,13.0,85,0.00,,,0.00,meteohub,2016-02-10 08:25:00,
2016-02-10 03:30:00,18.0,14.2,30.00,SSW,202,5.0,13.0,85,0.00,,,0.00,meteohub,2016-02-10 08:30:00,
2016-02-10 03:35:00,17.8,14.0,29.99,SSW,193,7.0,13.0,85,0.00,,,0.00,meteohub,2016-02-10 08:35:00,
2016-02-10 03:40:00,17.6,13.6,30.00,South,176,5.0,13.0,84,0.00,,,0.00,meteohub,2016-02-10 08:40:00,
2016-02-10 03:45:00,17.4,13.5,30.00,South,171,9.0,13.0,84,0.00,,,0.00,meteohub,2016-02-10 08:45:00,
2016-02-10 03:56:00,17.4,13.5,30.00,SSE,168,5.0,12.0,84,0.00,,,0.00,meteohub,2016-02-10 08:56:00,
2016-02-10 04:01:00,17.2,13.3,30.00,South,187,7.0,12.0,84,0.00,,,0.00,meteohub,2016-02-10 09:01:00,
2016-02-10 04:06:00,17.2,13.3,30.00,South,169,12.0,19.0,84,0.00,,,0.00,meteohub,2016-02-10 09:06:00,
2016-02-10 04:11:00,17.2,13.3,30.00,SE,141,1.0,19.0,84,0.00,,,0.00,meteohub,2016-02-10 09:11:00,
2016-02-10 04:16:00,17.2,13.5,30.00,South,176,9.0,12.0,85,0.00,,,0.00,meteohub,2016-02-10 09:16:00,
2016-02-10 04:21:00,17.2,13.3,30.01,SSW,195,3.0,12.0,84,0.00,,,0.00,meteohub,2016-02-10 09:21:00,
2016-02-10 04:26:00,17.2,13.3,30.01,SSE,157,3.0,14.0,84,0.00,,,0.00,meteohub,2016-02-10 09:26:00,
2016-02-10 04:31:00,17.2,13.3,30.01,South,173,6.0,14.0,84,0.00,,,0.00,meteohub,2016-02-10 09:31:00,
2016-02-10 04:36:00,17.2,13.3,30.01,South,170,6.0,14.0,84,0.00,,,0.00,meteohub,2016-02-10 09:36:00,
2016-02-10 04:41:00,17.2,13.3,30.01,SSW,210,5.0,12.0,84,0.00,,,0.00,meteohub,2016-02-10 09:41:00,
2016-02-10 04:46:00,17.1,13.1,30.01,SSE,168,9.0,11.0,84,0.00,,,0.00,meteohub,2016-02-10 09:46:00,
2016-02-10 04:51:00,17.2,13.3,30.01,SSE,166,5.0,11.0,84,0.00,,,0.00,meteohub,2016-02-10 09:51:00,
2016-02-10 04:56:00,17.2,13.3,30.01,South,186,3.0,11.0,84,0.00,,,0.00,meteohub,2016-02-10 09:56:00,
2016-02-10 05:01:00,17.2,12.9,30.02,SSE,160,8.0,10.0,83,0.00,,,0.00,meteohub,2016-02-10 10:01:00,
2016-02-10 05:06:00,17.2,12.9,30.02,SE,137,7.0,13.0,83,0.00,,,0.00,meteohub,2016-02-10 10:06:00,
2016-02-10 05:11:00,17.2,12.7,30.02,SSE,158,2.0,13.0,82,0.00,,,0.00,meteohub,2016-02-10 10:11:00,
2016-02-10 05:16:00,17.2,12.9,30.02,South,174,4.0,11.0,83,0.00,,,0.00,meteohub,2016-02-10 10:16:00,
2016-02-10 05:21:00,17.2,12.7,30.02,South,177,6.0,13.0,82,0.00,,,0.00,meteohub,2016-02-10 10:21:00,
2016-02-10 05:26:00,17.2,12.7,30.02,SSE,162,1.0,13.0,82,0.00,,,0.00,meteohub,2016-02-10 10:26:00,
2016-02-10 05:32:00,17.4,12.9,30.02,ESE,119,3.0,13.0,82,0.00,,,0.00,meteohub,2016-02-10 10:32:00,
2016-02-10 05:37:00,17.2,12.7,30.02,SE,146,2.0,11.0,82,0.00,,,0.00,meteohub,2016-02-10 10:37:00,
2016-02-10 05:42:00,17.2,12.9,30.03,South,179,5.0,11.0,83,0.00,,,0.00,meteohub,2016-02-10 10:42:00,
2016-02-10 05:47:00,17.2,13.3,30.03,SE,143,8.0,11.0,84,0.00,,,0.00,meteohub,2016-02-10 10:47:00,
2016-02-10 05:52:00,17.2,13.5,30.03,SSW,193,5.0,11.0,85,0.00,,,0.00,meteohub,2016-02-10 10:52:00,
2016-02-10 05:57:00,17.2,13.5,30.03,ESE,102,1.0,11.0,85,0.00,,,0.00,meteohub,2016-02-10 10:57:00,
2016-02-10 06:03:00,17.2,13.8,30.03,SSE,150,5.0,11.0,86,0.00,,,0.00,meteohub,2016-02-10 11:03:00,
2016-02-10 06:08:00,17.2,13.8,30.03,SSE,162,5.0,10.0,86,0.00,,,0.00,meteohub,2016-02-10 11:08:00,
2016-02-10 06:13:00,17.2,14.0,30.03,South,180,4.0,10.0,87,0.00,,,0.00,meteohub,2016-02-10 11:13:00,
2016-02-10 06:18:00,17.2,14.0,30.03,SE,131,9.0,10.0,87,0.00,,,0.00,meteohub,2016-02-10 11:18:00,
2016-02-10 06:23:00,17.2,14.4,30.03,South,175,4.0,9.0,88,0.00,,,0.00,meteohub,2016-02-10 11:23:00,
2016-02-10 06:28:00,17.2,14.0,30.03,South,180,2.0,9.0,87,0.00,,,0.00,meteohub,2016-02-10 11:28:00,
2016-02-10 06:38:00,17.4,14.5,30.03,South,184,3.0,8.0,88,0.00,,,0.00,meteohub,2016-02-10 11:38:00,
2016-02-10 06:48:00,17.8,14.9,30.03,ESE,111,2.0,7.0,88,0.00,,,0.00,meteohub,2016-02-10 11:48:00,
2016-02-10 06:54:00,17.8,14.9,30.03,South,180,3.0,11.0,88,0.00,,,0.00,meteohub,2016-02-10 11:54:00,
2016-02-10 06:59:00,17.6,14.4,30.03,South,189,6.0,11.0,87,0.00,,,0.00,meteohub,2016-02-10 11:59:00,
2016-02-10 07:04:00,17.4,14.0,30.03,SSW,207,5.0,11.0,86,0.00,,,0.00,meteohub,2016-02-10 12:04:00,
2016-02-10 07:09:00,17.4,13.6,30.03,SSE,164,10.0,12.0,85,0.00,,,0.00,meteohub,2016-02-10 12:09:00,
2016-02-10 07:14:00,17.4,13.6,30.04,South,174,10.0,13.0,85,0.00,,,0.00,meteohub,2016-02-10 12:14:00,
2016-02-10 07:19:00,17.4,13.5,30.04,South,175,4.0,13.0,84,0.00,,,0.00,meteohub,2016-02-10 12:19:00,
2016-02-10 07:24:00,17.4,13.1,30.04,SSW,213,3.0,16.0,83,0.00,,,0.00,meteohub,2016-02-10 12:24:00,
2016-02-10 07:29:00,17.4,12.9,30.04,South,177,3.0,16.0,82,0.00,,,0.00,meteohub,2016-02-10 12:29:00,
2016-02-10 07:35:00,17.6,13.1,30.04,SSE,154,2.0,13.0,82,0.00,,,0.00,meteohub,2016-02-10 12:35:00,
2016-02-10 07:40:00,17.6,13.1,30.04,SSW,197,5.0,13.0,82,0.00,,,0.00,meteohub,2016-02-10 12:40:00,
2016-02-10 07:45:00,17.6,13.3,30.05,South,170,5.0,11.0,83,0.00,,,0.00,meteohub,2016-02-10 12:45:00,
2016-02-10 07:50:00,17.6,13.1,30.05,South,170,7.0,11.0,82,0.00,,,0.00,meteohub,2016-02-10 12:50:00,
2016-02-10 07:55:00,17.4,12.9,30.05,WSW,244,2.0,12.0,82,0.00,,,0.00,meteohub,2016-02-10 12:55:00,
2016-02-10 08:00:00,17.6,13.3,30.05,SSW,212,5.0,12.0,83,0.00,,,0.00,meteohub,2016-02-10 13:00:00,
2016-02-10 08:05:00,17.6,13.3,30.05,South,188,7.0,14.0,83,0.00,,,0.00,meteohub,2016-02-10 13:05:00,
2016-02-10 08:16:00,17.4,13.5,30.05,SSE,148,3.0,14.0,84,0.00,,,0.00,meteohub,2016-02-10 13:16:00,
2016-02-10 08:21:00,17.4,13.5,30.05,SE,135,2.0,12.0,84,0.00,,,0.00,meteohub,2016-02-10 13:21:00,
2016-02-10 08:26:00,17.4,13.6,30.06,SSE,156,6.0,12.0,85,0.00,,,0.00,meteohub,2016-02-10 13:26:00,
2016-02-10 08:31:00,17.4,13.6,30.06,South,170,2.0,11.0,85,0.00,,,0.00,meteohub,2016-02-10 13:31:00,
2016-02-10 08:36:00,17.4,13.6,30.06,South,183,7.0,13.0,85,0.00,,,0.00,meteohub,2016-02-10 13:36:00,
2016-02-10 08:41:00,17.4,13.5,30.06,South,177,4.0,13.0,84,0.00,,,0.00,meteohub,2016-02-10 13:41:00,
2016-02-10 08:51:00,17.4,12.6,30.06,SSE,158,6.0,14.0,81,0.00,,,0.00,meteohub,2016-02-10 13:51:00,
2016-02-10 08:56:00,17.4,12.6,30.06,SSW,193,7.0,14.0,81,0.00,,,0.00,meteohub,2016-02-10 13:56:00,
2016-02-10 09:06:00,17.4,12.4,30.06,South,182,4.0,11.0,80,0.00,,,0.00,meteohub,2016-02-10 14:06:00,
2016-02-10 09:16:00,18.0,12.9,30.07,South,184,7.0,11.0,80,0.00,,,0.00,meteohub,2016-02-10 14:16:00,
2016-02-10 09:21:00,18.0,12.9,30.07,South,180,11.0,14.0,80,0.00,,,0.00,meteohub,2016-02-10 14:21:00,
2016-02-10 09:26:00,17.8,12.4,30.08,South,183,6.0,14.0,79,0.00,,,0.00,meteohub,2016-02-10 14:26:00,
2016-02-10 09:31:00,18.0,12.6,30.08,SSW,204,9.0,16.0,79,0.00,,,0.00,meteohub,2016-02-10 14:31:00,
2016-02-10 09:36:00,18.0,12.6,30.08,South,183,8.0,16.0,79,0.00,,,0.00,meteohub,2016-02-10 14:36:00,
2016-02-10 09:41:00,18.0,12.2,30.08,SSW,195,9.0,13.0,78,0.00,,,0.00,meteohub,2016-02-10 14:41:00,
2016-02-10 09:46:00,18.1,12.4,30.08,SSE,161,11.0,13.0,78,0.00,,,0.00,meteohub,2016-02-10 14:46:00,
2016-02-10 09:51:00,18.1,12.4,30.08,SE,127,5.0,13.0,78,0.00,,,0.00,meteohub,2016-02-10 14:51:00,
2016-02-10 09:56:00,18.3,12.6,30.08,SSE,168,9.0,13.0,78,0.00,,,0.00,meteohub,2016-02-10 14:56:00,
2016-02-10 10:01:00,18.1,12.4,30.08,SSW,213,5.0,13.0,78,0.00,,,0.00,meteohub,2016-02-10 15:01:00,
2016-02-10 10:06:00,18.3,12.9,30.08,SSE,163,2.0,13.0,79,0.00,,,0.00,meteohub,2016-02-10 15:06:00,
2016-02-10 10:11:00,18.7,12.9,30.08,SE,133,3.0,12.0,78,0.00,,,0.00,meteohub,2016-02-10 15:11:00,
2016-02-10 10:16:00,18.7,13.3,30.08,WSW,254,5.0,11.0,79,0.00,,,0.00,meteohub,2016-02-10 15:16:00,
2016-02-10 10:21:00,18.7,13.5,30.08,SW,214,5.0,15.0,80,0.00,,,0.00,meteohub,2016-02-10 15:21:00,
2016-02-10 10:32:00,17.6,13.3,30.09,WSW,243,7.0,15.0,83,0.00,,,0.00,meteohub,2016-02-10 15:32:00,
2016-02-10 10:37:00,17.2,13.8,30.08,SSW,210,5.0,17.0,86,0.00,,,0.00,meteohub,2016-02-10 15:37:00,
2016-02-10 10:42:00,16.9,13.6,30.09,SW,220,4.0,17.0,87,0.00,,,0.00,meteohub,2016-02-10 15:42:00,
2016-02-10 10:47:00,16.9,14.0,30.09,SSE,164,2.0,15.0,88,0.00,,,0.00,meteohub,2016-02-10 15:47:00,
2016-02-10 10:52:00,17.1,14.2,30.09,SSW,200,8.0,13.0,88,0.00,,,0.00,meteohub,2016-02-10 15:52:00,
2016-02-10 10:58:00,17.2,14.4,30.09,SSW,212,4.0,11.0,88,0.00,,,0.00,meteohub,2016-02-10 15:58:00,
2016-02-10 11:03:00,17.8,14.5,30.09,SSW,210,5.0,12.0,87,0.00,,,0.00,meteohub,2016-02-10 16:03:00,
2016-02-10 11:08:00,17.8,13.8,30.10,WSW,258,2.0,15.0,84,0.00,,,0.00,meteohub,2016-02-10 16:08:00,
2016-02-10 11:13:00,18.0,14.2,30.10,SW,214,8.0,18.0,85,0.00,,,0.00,meteohub,2016-02-10 16:13:00,
2016-02-10 11:18:00,18.0,13.6,30.10,South,174,8.0,18.0,83,0.00,,,0.00,meteohub,2016-02-10 16:18:00,
2016-02-10 11:23:00,18.1,13.8,30.10,SW,217,7.0,18.0,83,0.00,,,0.00,meteohub,2016-02-10 16:23:00,
2016-02-10 11:29:00,18.3,13.3,30.11,SSW,195,9.0,15.0,80,0.00,,,0.00,meteohub,2016-02-10 16:29:00,
2016-02-10 11:34:00,18.3,12.4,30.11,SW,215,8.0,17.0,77,0.00,,,0.00,meteohub,2016-02-10 16:34:00,
2016-02-10 11:44:00,18.5,12.7,30.11,SSW,211,5.0,21.0,78,0.00,,,0.00,meteohub,2016-02-10 16:44:00,
2016-02-10 11:49:00,18.7,12.9,30.11,South,177,3.0,18.0,78,0.00,,,0.00,meteohub,2016-02-10 16:49:00,
2016-02-10 11:54:00,18.9,12.9,30.11,SSW,197,5.0,18.0,77,0.00,,,0.00,meteohub,2016-02-10 16:54:00,
2016-02-10 12:00:00,19.0,13.1,30.11,South,189,5.0,17.0,77,0.00,,,0.00,meteohub,2016-02-10 17:00:00,
2016-02-10 12:10:00,18.5,12.2,30.11,SW,223,5.0,17.0,76,0.00,,,0.00,meteohub,2016-02-10 17:10:00,
2016-02-10 12:15:00,18.9,12.0,30.11,South,172,10.0,16.0,74,0.00,,,0.00,meteohub,2016-02-10 17:15:00,
2016-02-10 12:20:00,19.0,12.2,30.11,ENE,62,8.0,16.0,74,0.00,,,0.00,meteohub,2016-02-10 17:20:00,
2016-02-10 12:26:00,19.6,12.0,30.11,South,172,6.0,16.0,72,0.00,,,0.00,meteohub,2016-02-10 17:26:00,
2016-02-10 12:31:00,19.8,12.2,30.11,SSW,207,7.0,21.0,72,0.00,,,0.00,meteohub,2016-02-10 17:31:00,
2016-02-10 12:36:00,19.6,11.7,30.11,SSW,194,6.0,21.0,71,0.00,,,0.00,meteohub,2016-02-10 17:36:00,
2016-02-10 12:41:00,19.0,11.8,30.11,SSE,154,10.0,17.0,73,0.00,,,0.00,meteohub,2016-02-10 17:41:00,
2016-02-10 12:46:00,19.0,11.5,30.11,SSW,204,6.0,17.0,72,0.00,,,0.00,meteohub,2016-02-10 17:46:00,
2016-02-10 12:51:00,19.2,11.7,30.11,SSE,166,5.0,21.0,72,0.00,,,0.00,meteohub,2016-02-10 17:51:00,
2016-02-10 12:56:00,19.8,11.5,30.11,South,183,6.0,21.0,70,0.00,,,0.00,meteohub,2016-02-10 17:56:00,
2016-02-10 13:01:00,20.5,12.0,30.11,South,178,9.0,21.0,69,0.00,,,0.00,meteohub,2016-02-10 18:01:00,
2016-02-10 13:06:00,20.1,11.8,30.11,East,93,4.0,19.0,70,0.00,,,0.00,meteohub,2016-02-10 18:06:00,
2016-02-10 13:11:00,19.9,11.7,30.11,SSE,157,10.0,19.0,70,0.00,,,0.00,meteohub,2016-02-10 18:11:00,
2016-02-10 13:16:00,19.2,11.3,30.10,SSW,197,18.0,19.0,71,0.00,,,0.00,meteohub,2016-02-10 18:16:00,
2016-02-10 13:21:00,18.7,11.1,30.11,South,185,7.0,24.0,72,0.00,,,0.00,meteohub,2016-02-10 18:21:00,
2016-02-10 13:26:00,18.9,10.9,30.10,South,190,4.0,24.0,71,0.00,,,0.00,meteohub,2016-02-10 18:26:00,
2016-02-10 13:31:00,18.9,10.9,30.11,South,169,10.0,24.0,71,0.00,,,0.00,meteohub,2016-02-10 18:31:00,
2016-02-10 13:36:00,18.9,10.4,30.10,South,177,8.0,17.0,69,0.00,,,0.00,meteohub,2016-02-10 18:36:00,
2016-02-10 13:41:00,18.9,10.4,30.10,South,177,5.0,17.0,69,0.00,,,0.00,meteohub,2016-02-10 18:41:00,
2016-02-10 13:47:00,18.3,9.9,30.10,SSE,158,8.0,25.0,69,0.00,,,0.00,meteohub,2016-02-10 18:47:00,
2016-02-10 13:52:00,18.7,10.6,30.10,SW,228,3.0,25.0,70,0.00,,,0.00,meteohub,2016-02-10 18:52:00,
2016-02-10 13:57:00,18.9,10.4,30.10,South,182,7.0,25.0,69,0.00,,,0.00,meteohub,2016-02-10 18:57:00,
2016-02-10 14:02:00,18.7,9.9,30.10,South,187,8.0,16.0,68,0.00,,,0.00,meteohub,2016-02-10 19:02:00,
2016-02-10 14:07:00,18.7,10.8,30.10,SE,144,4.0,17.0,71,0.00,,,0.00,meteohub,2016-02-10 19:07:00,
2016-02-10 14:13:00,18.3,10.8,30.10,SSE,156,10.0,17.0,72,0.00,,,0.00,meteohub,2016-02-10 19:13:00,
2016-02-10 14:18:00,18.1,10.6,30.10,SSW,199,9.0,18.0,72,0.00,,,0.00,meteohub,2016-02-10 19:18:00,
2016-02-10 14:23:00,18.1,10.0,30.10,SSE,163,10.0,18.0,70,0.00,,,0.00,meteohub,2016-02-10 19:23:00,
2016-02-10 14:28:00,18.5,10.0,30.10,SSE,164,9.0,18.0,69,0.00,,,0.00,meteohub,2016-02-10 19:28:00,
2016-02-10 14:33:00,18.7,9.9,30.10,SSE,166,8.0,18.0,68,0.00,,,0.00,meteohub,2016-02-10 19:33:00,
2016-02-10 14:43:00,18.9,11.3,30.10,South,187,6.0,15.0,72,0.00,,,0.00,meteohub,2016-02-10 19:43:00,
2016-02-10 14:49:00,18.9,11.3,30.09,South,177,6.0,14.0,72,0.00,,,0.00,meteohub,2016-02-10 19:49:00,
2016-02-10 14:59:00,19.2,10.8,30.10,South,189,6.0,12.0,69,0.00,,,0.00,meteohub,2016-02-10 19:59:00,
2016-02-10 15:04:00,19.4,11.3,30.09,SE,134,1.0,16.0,70,0.00,,,0.00,meteohub,2016-02-10 20:04:00,
2016-02-10 15:09:00,19.6,11.1,30.09,South,172,5.0,16.0,69,0.00,,,0.00,meteohub,2016-02-10 20:09:00,
2016-02-10 15:14:00,19.2,11.1,30.10,South,178,6.0,16.0,70,0.00,,,0.00,meteohub,2016-02-10 20:14:00,
2016-02-10 15:19:00,19.2,11.3,30.09,SSW,193,7.0,13.0,71,0.00,,,0.00,meteohub,2016-02-10 20:19:00,
2016-02-10 15:25:00,19.4,11.3,30.10,South,174,6.0,13.0,70,0.00,,,0.00,meteohub,2016-02-10 20:25:00,
2016-02-10 15:30:00,19.8,11.5,30.10,South,190,6.0,14.0,70,0.00,,,0.00,meteohub,2016-02-10 20:30:00,
2016-02-10 15:35:00,19.8,11.8,30.09,SSE,167,11.0,13.0,71,0.00,,,0.00,meteohub,2016-02-10 20:35:00,
2016-02-10 15:40:00,19.8,11.8,30.09,NE,42,10.0,13.0,71,0.00,,,0.00,meteohub,2016-02-10 20:40:00,
2016-02-10 15:45:00,19.8,10.9,30.09,South,171,5.0,13.0,68,0.00,,,0.00,meteohub,2016-02-10 20:45:00,
2016-02-10 15:50:00,19.6,10.4,30.09,South,179,8.0,15.0,67,0.00,,,0.00,meteohub,2016-02-10 20:50:00,
2016-02-10 15:55:00,19.8,10.2,30.10,South,188,9.0,16.0,66,0.00,,,0.00,meteohub,2016-02-10 20:55:00,
2016-02-10 16:01:00,19.8,10.2,30.10,South,184,8.0,19.0,66,0.00,,,0.00,meteohub,2016-02-10 21:01:00,
2016-02-10 16:06:00,19.8,10.2,30.10,NE,41,3.0,19.0,66,0.00,,,0.00,meteohub,2016-02-10 21:06:00,
2016-02-10 16:11:00,19.8,9.9,30.10,SW,233,9.0,19.0,65,0.00,,,0.00,meteohub,2016-02-10 21:11:00,
2016-02-10 16:16:00,19.9,9.7,30.10,SW,232,5.0,16.0,64,0.00,,,0.00,meteohub,2016-02-10 21:16:00,
2016-02-10 16:21:00,20.1,10.2,30.10,South,177,9.0,16.0,65,0.00,,,0.00,meteohub,2016-02-10 21:21:00,
2016-02-10 16:26:00,20.3,10.0,30.10,South,185,4.0,16.0,64,0.00,,,0.00,meteohub,2016-02-10 21:26:00,
2016-02-10 16:31:00,20.7,10.4,30.10,SSE,156,10.0,16.0,64,0.00,,,0.00,meteohub,2016-02-10 21:31:00,
2016-02-10 16:36:00,20.5,10.2,30.10,South,170,9.0,15.0,64,0.00,,,0.00,meteohub,2016-02-10 21:36:00,
2016-02-10 16:41:00,20.1,9.5,30.11,SE,127,8.0,16.0,63,0.00,,,0.00,meteohub,2016-02-10 21:41:00,
2016-02-10 16:46:00,19.9,9.3,30.11,SSW,195,11.0,20.0,63,0.00,,,0.00,meteohub,2016-02-10 21:46:00,
2016-02-10 16:51:00,19.9,9.3,30.10,South,169,7.0,20.0,63,0.00,,,0.00,meteohub,2016-02-10 21:51:00,
2016-02-10 16:56:00,20.1,9.5,30.11,SSE,158,12.0,20.0,63,0.00,,,0.00,meteohub,2016-02-10 21:56:00,
2016-02-10 17:01:00,20.1,9.5,30.11,SSE,164,5.0,16.0,63,0.00,,,0.00,meteohub,2016-02-10 22:01:00,
2016-02-10 17:06:00,20.1,9.5,30.11,WSW,249,11.0,15.0,63,0.00,,,0.00,meteohub,2016-02-10 22:06:00,
2016-02-10 17:11:00,19.9,9.3,30.11,SSE,168,2.0,18.0,63,0.00,,,0.00,meteohub,2016-02-10 22:11:00,
2016-02-10 17:16:00,19.9,9.3,30.11,South,173,3.0,18.0,63,0.00,,,0.00,meteohub,2016-02-10 22:16:00,
2016-02-10 17:21:00,19.9,9.7,30.11,SSE,160,9.0,18.0,64,0.00,,,0.00,meteohub,2016-02-10 22:21:00,
2016-02-10 17:26:00,19.9,10.0,30.12,South,179,5.0,16.0,65,0.00,,,0.00,meteohub,2016-02-10 22:26:00,
2016-02-10 17:31:00,19.9,10.0,30.12,SSE,164,6.0,16.0,65,0.00,,,0.00,meteohub,2016-02-10 22:31:00,
2016-02-10 17:37:00,19.9,9.7,30.12,South,169,5.0,14.0,64,0.00,,,0.00,meteohub,2016-02-10 22:37:00,
2016-02-10 17:42:00,20.1,10.2,30.12,South,181,1.0,15.0,65,0.00,,,0.00,meteohub,2016-02-10 22:42:00,
2016-02-10 17:47:00,19.9,9.7,30.12,SSE,153,7.0,15.0,64,0.00,,,0.00,meteohub,2016-02-10 22:47:00,
2016-02-10 17:52:00,19.9,10.0,30.12,South,180,3.0,14.0,65,0.00,,,0.00,meteohub,2016-02-10 22:52:00,
2016-02-10 17:57:00,19.8,9.9,30.12,SSE,166,6.0,15.0,65,0.00,,,0.00,meteohub,2016-02-10 22:57:00,
2016-02-10 18:02:00,19.8,9.9,30.13,SSE,159,7.0,15.0,65,0.00,,,0.00,meteohub,2016-02-10 23:02:00,
2016-02-10 18:13:00,19.6,10.0,30.13,SSE,168,4.0,11.0,66,0.00,,,0.00,meteohub,2016-02-10 23:13:00,
2016-02-10 18:18:00,19.6,10.0,30.13,South,186,5.0,11.0,66,0.00,,,0.00,meteohub,2016-02-10 23:18:00,
2016-02-10 18:23:00,19.6,10.0,30.13,SE,145,2.0,10.0,66,0.00,,,0.00,meteohub,2016-02-10 23:23:00,
2016-02-10 18:28:00,19.6,10.0,30.13,SSE,164,9.0,9.0,66,0.00,,,0.00,meteohub,2016-02-10 23:28:00,
2016-02-10 18:33:00,19.6,10.0,30.13,South,175,3.0,10.0,66,0.00,,,0.00,meteohub,2016-02-10 23:33:00,
2016-02-10 18:38:00,19.4,9.9,30.14,South,185,6.0,10.0,66,0.00,,,0.00,meteohub,2016-02-10 23:38:00,
2016-02-10 18:43:00,19.4,10.2,30.14,SSE,164,4.0,10.0,67,0.00,,,0.00,meteohub,2016-02-10 23:43:00,
2016-02-10 18:49:00,19.2,10.0,30.14,SSE,163,4.0,10.0,67,0.00,,,0.00,meteohub,2016-02-10 23:49:00,
2016-02-10 18:54:00,19.2,10.0,30.14,SSE,166,3.0,8.0,67,0.00,,,0.00,meteohub,2016-02-10 23:54:00,
2016-02-10 18:59:00,19.2,10.0,30.14,South,174,2.0,7.0,67,0.00,,,0.00,meteohub,2016-02-10 23:59:00,
2016-02-10 19:04:00,19.2,10.4,30.14,South,170,2.0,7.0,68,0.00,,,0.00,meteohub,2016-02-11 00:04:00,
2016-02-10 19:09:00,19.2,10.4,30.14,SSW,193,3.0,7.0,68,0.00,,,0.00,meteohub,2016-02-11 00:09:00,
2016-02-10 19:14:00,19.2,10.4,30.15,South,181,3.0,7.0,68,0.00,,,0.00,meteohub,2016-02-11 00:14:00,
2016-02-10 19:19:00,19.2,10.4,30.15,South,183,4.0,6.0,68,0.00,,,0.00,meteohub,2016-02-11 00:19:00,
2016-02-10 19:25:00,19.4,10.6,30.15,South,183,2.0,6.0,68,0.00,,,0.00,meteohub,2016-02-11 00:25:00,
2016-02-10 19:30:00,19.4,10.6,30.15,South,174,2.0,8.0,68,0.00,,,0.00,meteohub,2016-02-11 00:30:00,
2016-02-10 19:35:00,19.6,10.8,30.14,SSE,165,4.0,8.0,68,0.00,,,0.00,meteohub,2016-02-11 00:35:00,
2016-02-10 19:40:00,19.6,10.8,30.15,South,181,1.0,6.0,68,0.00,,,0.00,meteohub,2016-02-11 00:40:00,
2016-02-10 19:45:00,19.6,10.8,30.15,South,185,4.0,8.0,68,0.00,,,0.00,meteohub,2016-02-11 00:45:00,
2016-02-10 19:50:00,19.6,10.8,30.15,South,189,2.0,8.0,68,0.00,,,0.00,meteohub,2016-02-11 00:50:00,
2016-02-10 19:55:00,19.8,11.3,30.15,South,180,1.0,8.0,69,0.00,,,0.00,meteohub,2016-02-11 00:55:00,
2016-02-10 20:01:00,19.8,11.3,30.15,SSW,196,3.0,5.0,69,0.00,,,0.00,meteohub,2016-02-11 01:01:00,
2016-02-10 20:06:00,19.8,11.3,30.15,South,187,4.0,6.0,69,0.00,,,0.00,meteohub,2016-02-11 01:06:00,
2016-02-10 20:11:00,19.6,11.1,30.16,South,177,1.0,6.0,69,0.00,,,0.00,meteohub,2016-02-11 01:11:00,
2016-02-10 20:21:00,19.8,11.3,30.16,South,170,2.0,5.0,69,0.00,,,0.00,meteohub,2016-02-11 01:21:00,
2016-02-10 20:26:00,19.8,11.5,30.15,South,169,2.0,5.0,70,0.00,,,0.00,meteohub,2016-02-11 01:26:00,
2016-02-10 20:31:00,19.8,11.5,30.16,South,172,2.0,5.0,70,0.00,,,0.00,meteohub,2016-02-11 01:31:00,
2016-02-10 20:36:00,19.9,11.7,30.16,South,177,5.0,6.0,70,0.00,,,0.00,meteohub,2016-02-11 01:36:00,
2016-02-10 20:41:00,19.9,11.7,30.16,South,175,1.0,7.0,70,0.00,,,0.00,meteohub,2016-02-11 01:41:00,